Nearby METAR Reports

 

ENRY - Rygge (nor-Afb), Norway
Distance from station: 0 24km
Updated: 26/11/2020 13:20
Clear
Clear
 Wind from NNW
Wind: NNW 7 km/h
Temperature: 6°C
Wind Chill: 4°C
Dew Point: 0°C
Humidity: 66%
Barometer: 1013 hPa
Summary: Clear
Visibility: greater than 10 km
2020/11/26 12:20 ENRY 261220Z 34004KT CAVOK 06/00 Q1013 NOSIG
ENTO - Torp (civ/Nor-Af, Norway
Distance from station: W 29km
Updated: 26/11/2020 13:20
Clear
Clear
 Wind from NNW
Wind: NNW 15 km/h
Temperature: 6°C
Wind Chill: 3°C
Dew Point: 0°C
Humidity: 66%
Barometer: 1013 hPa
Summary: Clear
Visibility: greater than 10 km
2020/11/26 12:20 ENTO 261220Z 34008KT CAVOK 06/M00 Q1013 NOSIG
 
ENSN - Skien/Geiterygge, Norway
Distance from station: W 68km
Updated: 09/11/2015 09:50
NOT Current
Clear
Clear
 Wind from SSW
Wind: SSW 19 km/h, Gust: 41 km/h
Temperature: 7°C
Wind Chill: 4°C
Dew Point: 3°C
Humidity: 76%
Barometer: 1000 hPa
Summary: Clear
Visibility: greater than 10 km
2015/11/09 08:50 ENSN 090850Z 20010G22KT 150V240 CAVOK 07/03 Q1000